createdAt,value
2019-03-18T00:00:57.748Z,100835.32
2019-03-18T00:02:02.741Z,100832.33
2019-03-18T00:03:08.004Z,100837.67
2019-03-18T00:04:13.133Z,100841.63
2019-03-18T00:05:18.079Z,100834.69
2019-03-18T00:06:23.162Z,100843.41
2019-03-18T00:07:28.123Z,100836.47
2019-03-18T00:08:33.467Z,100836.47
2019-03-18T00:09:38.894Z,100835.70
2019-03-18T00:10:43.873Z,100841.42
2019-03-18T00:11:49.745Z,100836.66
2019-03-18T00:12:55.768Z,100844.56
2019-03-18T00:14:00.735Z,100847.66
2019-03-18T00:15:06.420Z,100842.85
2019-03-18T00:16:11.548Z,100856.48
2019-03-18T00:17:16.503Z,100850.37
2019-03-18T00:18:21.885Z,100850.75
2019-03-18T00:19:26.892Z,100851.22
2019-03-18T00:20:32.292Z,100857.34
2019-03-18T00:21:37.400Z,100858.66
2019-03-18T00:22:42.779Z,100852.64
2019-03-18T00:23:48.404Z,100854.31
2019-03-18T00:24:53.429Z,100853.96
2019-03-18T00:25:58.819Z,100850.09
2019-03-18T00:27:03.857Z,100850.16
2019-03-18T00:28:08.866Z,100855.08
2019-03-18T00:29:14.275Z,100853.76
2019-03-18T00:30:19.756Z,100853.76
2019-03-18T00:31:24.864Z,100854.11
2019-03-18T00:32:29.867Z,100858.17
2019-03-18T00:33:35.185Z,100861.73
2019-03-18T00:34:40.598Z,100856.93
2019-03-18T00:35:45.985Z,100856.58
2019-03-18T00:36:51.089Z,100861.84
2019-03-18T00:37:56.170Z,100859.28
2019-03-18T00:39:01.450Z,100861.45
2019-03-18T00:40:07.473Z,100860.14
2019-03-18T00:41:13.337Z,100859.75
2019-03-18T00:42:18.273Z,100862.84
2019-03-18T00:43:23.308Z,100865.97
2019-03-18T00:44:28.505Z,100865.13
2019-03-18T00:45:33.488Z,100864.66
2019-03-18T00:46:38.792Z,100867.30
2019-03-18T00:47:43.953Z,100867.30
2019-03-18T00:48:49.332Z,100863.34
2019-03-18T00:49:54.305Z,100862.95
2019-03-18T00:50:59.346Z,100863.88
2019-03-18T00:52:04.551Z,100869.15
2019-03-18T00:53:09.576Z,100866.52
2019-03-18T00:54:14.605Z,100867.37
2019-03-18T00:55:19.601Z,100868.41
2019-03-18T00:56:24.933Z,100879.01
2019-03-18T00:57:29.871Z,100872.89
2019-03-18T00:58:35.266Z,100873.28
2019-03-18T00:59:40.585Z,100876.84
2019-03-18T01:00:45.629Z,100876.48
2019-03-18T01:01:51.414Z,100877.34
2019-03-18T01:02:56.829Z,100882.67
2019-03-18T01:04:01.934Z,100877.87
2019-03-18T01:05:07.119Z,100878.73
2019-03-18T01:06:12.979Z,100877.02
2019-03-18T01:07:18.686Z,100879.19
2019-03-18T01:08:24.248Z,100874.39
2019-03-18T01:09:29.549Z,100880.61
2019-03-18T01:10:34.736Z,100883.61
2019-03-18T01:11:39.675Z,100879.38
2019-03-18T01:12:44.722Z,100877.59
2019-03-18T01:13:50.019Z,100878.45
2019-03-18T01:14:54.975Z,100874.58
2019-03-18T01:16:00.227Z,100875.53
2019-03-18T01:17:05.264Z,100878.52
2019-03-18T01:18:10.365Z,100873.25
2019-03-18T01:19:15.370Z,100877.67
2019-03-18T01:20:20.437Z,100875.53
2019-03-18T01:21:25.749Z,100878.16
2019-03-18T01:22:31.167Z,100879.48
2019-03-18T01:23:36.080Z,100878.52
2019-03-18T01:24:41.291Z,100882.58
2019-03-18T01:25:46.230Z,100886.59
2019-03-18T01:26:51.475Z,100884.53
2019-03-18T01:27:56.537Z,100879.81
2019-03-18T01:29:01.504Z,100888.28
2019-03-18T01:30:07.174Z,100881.30
2019-03-18T01:31:12.192Z,100880.95
2019-03-18T01:32:17.173Z,100887.06
2019-03-18T01:33:22.173Z,100888.84
2019-03-18T01:34:27.379Z,100889.77
2019-03-18T01:35:32.797Z,100885.83
2019-03-18T01:36:37.725Z,100884.58
2019-03-18T01:37:43.098Z,100893.72
2019-03-18T01:38:48.173Z,100897.66
2019-03-18T01:39:53.293Z,100895.03
2019-03-18T01:40:58.626Z,100893.25
2019-03-18T01:42:05.585Z,100899.38
2019-03-18T01:43:10.597Z,100896.42
2019-03-18T01:44:15.779Z,100896.06
2019-03-18T01:45:20.857Z,100893.05
2019-03-18T01:46:25.915Z,100891.73
2019-03-18T01:47:30.998Z,100893.44
2019-03-18T01:48:36.089Z,100892.12
2019-03-18T01:49:41.354Z,100889.48
2019-03-18T01:50:46.277Z,100893.44
2019-03-18T01:51:52.228Z,100896.92
2019-03-18T01:52:57.231Z,100896.42
2019-03-18T01:54:02.559Z,100894.19
2019-03-18T01:55:07.648Z,100891.48
2019-03-18T01:56:12.799Z,100891.48
2019-03-18T01:57:17.788Z,100893.64
2019-03-18T01:58:23.062Z,100898.05
2019-03-18T01:59:28.154Z,100903.86
2019-03-18T02:00:34.057Z,100900.87
2019-03-18T02:01:39.399Z,100899.62
2019-03-18T02:02:44.535Z,100903.18
2019-03-18T02:03:51.190Z,100904.14
2019-03-18T02:04:56.369Z,100903.28
2019-03-18T02:06:01.340Z,100900.66
2019-03-18T02:07:06.475Z,100899.34
2019-03-18T02:08:11.554Z,100894.08
2019-03-18T02:09:16.594Z,100891.45
2019-03-18T02:10:21.642Z,100894.93
2019-03-18T02:11:26.752Z,100893.97
2019-03-18T02:12:31.797Z,100887.03
2019-03-18T02:13:37.159Z,100887.39
2019-03-18T02:14:42.145Z,100892.19
2019-03-18T02:15:53.384Z,100894.36
2019-03-18T02:16:53.846Z,100889.56
2019-03-18T02:17:58.800Z,100893.51
2019-03-18T02:19:03.832Z,100893.15
2019-03-18T02:20:09.371Z,100896.70
2019-03-18T02:21:14.459Z,100898.02
2019-03-18T02:22:19.545Z,100901.58
2019-03-18T02:23:24.513Z,100901.97
2019-03-18T02:24:30.325Z,100906.31
2019-03-18T02:25:35.404Z,100902.72
2019-03-18T02:26:40.426Z,100902.36
2019-03-18T02:27:45.618Z,100900.66
2019-03-18T02:28:50.940Z,100907.70
2019-03-18T02:29:56.343Z,100907.70
2019-03-18T02:31:01.725Z,100905.53
2019-03-18T02:32:06.953Z,100911.18
2019-03-18T02:33:11.992Z,100907.23
2019-03-18T02:34:16.978Z,100902.83
2019-03-18T02:35:22.185Z,100904.14
2019-03-18T02:36:27.153Z,100908.45
2019-03-18T02:37:32.307Z,100899.16
2019-03-18T02:38:37.326Z,100900.87
2019-03-18T02:39:42.596Z,100902.00
2019-03-18T02:40:47.507Z,100900.69
2019-03-18T02:41:52.533Z,100904.53
2019-03-18T02:42:57.498Z,100901.90
2019-03-18T02:44:02.973Z,100893.15
2019-03-18T02:45:09.068Z,100893.54
2019-03-18T02:46:14.955Z,100896.91
2019-03-18T02:47:20.364Z,100889.02
2019-03-18T02:48:25.627Z,100895.60
2019-03-18T02:49:30.679Z,100896.91
2019-03-18T02:50:35.723Z,100895.99
2019-03-18T02:51:41.079Z,100907.66
2019-03-18T02:52:46.676Z,100910.21
2019-03-18T02:53:52.074Z,100908.80
2019-03-18T02:54:57.098Z,100911.81
2019-03-18T02:56:02.067Z,100914.66
2019-03-18T02:57:07.032Z,100912.23
2019-03-18T02:58:12.341Z,100918.06
2019-03-18T02:59:17.353Z,100919.30
2019-03-18T03:00:22.617Z,100925.03
2019-03-18T03:01:27.739Z,100927.66
2019-03-18T03:02:33.415Z,100925.03
2019-03-18T03:03:38.683Z,100930.19
2019-03-18T03:04:44.164Z,100930.47
2019-03-18T03:05:49.172Z,100930.79
2019-03-18T03:06:54.223Z,100929.83
2019-03-18T03:07:59.405Z,100926.19
2019-03-18T03:09:06.793Z,100926.01
2019-03-18T03:10:12.498Z,100924.51
2019-03-18T03:11:17.777Z,100929.98
2019-03-18T03:12:23.014Z,100930.73
2019-03-18T03:13:28.095Z,100926.98
2019-03-18T03:14:33.088Z,100918.12
2019-03-18T03:15:38.172Z,100921.88
2019-03-18T03:16:43.607Z,100927.92
2019-03-18T03:17:48.495Z,100934.41
2019-03-18T03:18:53.584Z,100935.25
2019-03-18T03:19:58.505Z,100929.25
2019-03-18T03:21:03.505Z,100947.77
2019-03-18T03:22:08.512Z,100950.97
2019-03-18T03:23:13.567Z,100949.27
2019-03-18T03:24:18.777Z,100958.95
2019-03-18T03:25:25.045Z,100958.59
2019-03-18T03:26:30.452Z,100967.80
2019-03-18T03:27:35.767Z,100964.78
2019-03-18T03:28:40.706Z,100965.17
2019-03-18T03:29:45.834Z,100958.28
2019-03-18T03:30:51.177Z,100959.23
2019-03-18T03:31:56.186Z,100959.59
2019-03-18T03:33:01.358Z,100964.39
2019-03-18T03:34:12.978Z,100964.86
2019-03-18T03:35:14.151Z,100963.19
2019-03-18T03:36:21.560Z,100974.93
2019-03-18T03:37:26.793Z,100964.97
2019-03-18T03:38:31.902Z,100967.60
2019-03-18T03:39:37.304Z,100975.50
2019-03-18T03:40:42.297Z,100964.22
2019-03-18T03:41:47.614Z,100967.39
2019-03-18T03:42:52.915Z,100977.19
2019-03-18T03:43:57.994Z,100972.37
2019-03-18T03:45:02.893Z,100969.81
2019-03-18T03:46:08.079Z,100971.70
2019-03-18T03:47:12.997Z,100970.00
2019-03-18T03:48:18.246Z,100977.16
2019-03-18T03:49:23.175Z,100976.02
2019-03-18T03:50:28.189Z,100974.70
2019-03-18T03:51:33.187Z,100976.02
2019-03-18T03:52:38.206Z,100971.03
2019-03-18T03:53:44.218Z,100973.59
2019-03-18T03:54:49.322Z,100976.12
2019-03-18T03:55:54.363Z,100969.00
2019-03-18T03:56:59.795Z,100969.81
2019-03-18T03:58:05.011Z,100978.11
2019-03-18T03:59:10.432Z,100980.28
2019-03-18T04:00:15.537Z,100978.11
2019-03-18T04:01:20.946Z,100979.42
2019-03-18T04:02:26.151Z,100981.31
2019-03-18T04:03:38.175Z,100981.00
2019-03-18T04:04:39.221Z,100986.83
2019-03-18T04:05:44.593Z,100991.25
2019-03-18T04:06:49.714Z,100990.89
2019-03-18T04:07:54.937Z,100990.03
2019-03-18T04:09:01.305Z,100989.93
2019-03-18T04:10:06.674Z,100986.94
2019-03-18T04:11:11.886Z,100992.10
2019-03-18T04:12:17.311Z,100989.00
2019-03-18T04:13:22.685Z,100992.20
2019-03-18T04:14:27.954Z,100981.75
2019-03-18T04:15:32.921Z,100987.09
2019-03-18T04:16:37.871Z,100985.77
2019-03-18T04:17:42.939Z,100984.84
2019-03-18T04:18:47.909Z,100990.50
2019-03-18T04:19:52.878Z,100984.77
2019-03-18T04:20:58.157Z,100999.15
2019-03-18T04:22:03.707Z,101000.18
2019-03-18T04:23:09.062Z,101001.95
2019-03-18T04:24:14.200Z,101005.52
2019-03-18T04:25:19.248Z,101000.25
2019-03-18T04:26:24.644Z,101000.82
2019-03-18T04:27:30.260Z,100991.31
2019-03-18T04:28:35.265Z,100998.08
2019-03-18T04:29:40.236Z,101002.48
2019-03-18T04:30:45.551Z,101003.42
2019-03-18T04:31:51.178Z,101009.08
2019-03-18T04:32:56.218Z,101021.31
2019-03-18T04:34:01.728Z,101027.40
2019-03-18T04:35:06.905Z,101032.20
2019-03-18T04:36:12.523Z,101028.25
2019-03-18T04:37:17.537Z,101030.25
2019-03-18T04:38:22.815Z,101023.95
2019-03-18T04:39:27.867Z,101030.53
2019-03-18T04:40:32.987Z,101027.44
2019-03-18T04:41:38.259Z,101035.66
2019-03-18T04:42:43.575Z,101039.61
2019-03-18T04:43:48.554Z,101040.92
2019-03-18T04:44:53.483Z,101047.01
2019-03-18T04:45:58.499Z,101061.03
2019-03-18T04:47:13.849Z,101061.50
2019-03-18T04:48:10.497Z,101065.83
2019-03-18T04:49:15.476Z,101064.05
2019-03-18T04:50:20.809Z,101061.42
2019-03-18T04:51:26.264Z,101070.64
2019-03-18T04:52:31.419Z,101072.88
2019-03-18T04:53:36.464Z,101063.66
2019-03-18T04:54:41.503Z,101070.35
2019-03-18T04:55:46.450Z,101059.89
2019-03-18T04:56:51.792Z,101068.57
2019-03-18T04:57:56.845Z,101068.57
2019-03-18T04:59:01.901Z,101066.69
2019-03-18T05:00:07.339Z,101067.44
2019-03-18T05:01:12.308Z,101060.78
2019-03-18T05:02:17.406Z,101063.70
2019-03-18T05:03:22.411Z,101062.78
2019-03-18T05:04:27.387Z,101064.45
2019-03-18T05:05:32.515Z,101063.70
2019-03-18T05:06:37.523Z,101062.00
2019-03-18T05:07:42.595Z,101064.45
2019-03-18T05:08:48.384Z,101068.18
2019-03-18T05:09:53.722Z,101069.67
2019-03-18T05:10:58.686Z,101065.11
2019-03-18T05:12:03.702Z,101066.60
2019-03-18T05:13:08.674Z,101065.85
2019-03-18T05:14:13.644Z,101070.20
2019-03-18T05:15:18.848Z,101066.78
2019-03-18T05:16:23.902Z,101075.46
2019-03-18T05:17:28.952Z,101072.83
2019-03-18T05:18:36.594Z,101074.97
2019-03-18T05:19:40.821Z,101078.09
2019-03-18T05:20:46.270Z,101085.50
2019-03-18T05:21:51.256Z,101089.38
2019-03-18T05:22:56.549Z,101091.08
2019-03-18T05:24:01.516Z,101094.47
2019-03-18T05:25:06.852Z,101097.95
2019-03-18T05:26:11.870Z,101100.48
2019-03-18T05:27:17.237Z,101101.34
2019-03-18T05:28:22.278Z,101098.64
2019-03-18T05:29:27.596Z,101098.64
2019-03-18T05:30:32.892Z,101105.51
2019-03-18T05:31:37.969Z,101101.95
2019-03-18T05:32:42.931Z,101108.07
2019-03-18T05:33:48.131Z,101109.00
2019-03-18T05:34:53.439Z,101107.29
2019-03-18T05:35:58.704Z,101105.58
2019-03-18T05:37:05.290Z,101108.31
2019-03-18T05:38:10.590Z,101109.23
2019-03-18T05:39:15.639Z,101113.19
2019-03-18T05:40:20.734Z,101112.73
2019-03-18T05:41:25.826Z,101115.36
2019-03-18T05:42:31.099Z,101114.44
2019-03-18T05:43:36.259Z,101124.97
2019-03-18T05:44:41.742Z,101125.04
2019-03-18T05:45:46.947Z,101131.63
2019-03-18T05:46:52.230Z,101126.00
2019-03-18T05:47:57.989Z,101130.23
2019-03-18T05:49:02.967Z,101135.86
2019-03-18T05:50:08.513Z,101134.08
2019-03-18T05:51:13.695Z,101134.87
2019-03-18T05:52:20.318Z,101136.08
2019-03-18T05:53:25.594Z,101137.79
2019-03-18T05:54:30.750Z,101136.70
2019-03-18T05:55:35.839Z,101130.47
2019-03-18T05:56:41.114Z,101132.64
2019-03-18T05:57:46.645Z,101129.94
2019-03-18T05:58:52.225Z,101130.86
2019-03-18T05:59:57.597Z,101136.59
2019-03-18T06:01:02.657Z,101134.52
2019-03-18T06:02:07.800Z,101137.69
2019-03-18T06:03:12.758Z,101139.57
2019-03-18T06:04:17.731Z,101136.64
2019-03-18T06:05:23.168Z,101144.62
2019-03-18T06:06:28.149Z,101144.42
2019-03-18T06:07:33.257Z,101146.73
2019-03-18T06:08:38.422Z,101145.59
2019-03-18T06:09:43.501Z,101149.64
2019-03-18T06:10:48.555Z,101146.22
2019-03-18T06:11:53.536Z,101154.97
2019-03-18T06:12:59.116Z,101155.53
2019-03-18T06:14:04.180Z,101161.16
2019-03-18T06:15:09.436Z,101165.61
2019-03-18T06:16:14.820Z,101163.80
2019-03-18T06:17:20.485Z,101164.19
2019-03-18T06:18:25.932Z,101168.36
2019-03-18T06:19:31.318Z,101165.16
2019-03-18T06:20:36.696Z,101163.15
2019-03-18T06:21:42.119Z,101179.53
2019-03-18T06:22:47.125Z,101167.98
2019-03-18T06:23:52.165Z,101162.47
2019-03-18T06:24:58.690Z,101167.56
2019-03-18T06:26:03.947Z,101172.66
2019-03-18T06:27:08.979Z,101169.86
2019-03-18T06:28:14.190Z,101174.59
2019-03-18T06:29:19.585Z,101170.47
2019-03-18T06:30:24.890Z,101179.22
2019-03-18T06:31:30.193Z,101186.73
2019-03-18T06:32:35.327Z,101187.95
2019-03-18T06:33:40.365Z,101183.64
2019-03-18T06:34:45.704Z,101192.00
2019-03-18T06:35:51.026Z,101196.88
2019-03-18T06:36:56.382Z,101195.27
2019-03-18T06:38:01.813Z,101199.61
2019-03-18T06:39:07.491Z,101198.12
2019-03-18T06:40:13.007Z,101204.15
2019-03-18T06:41:18.040Z,101199.63
2019-03-18T06:42:23.263Z,101203.80
2019-03-18T06:43:29.389Z,101205.34
2019-03-18T06:44:34.681Z,101206.48
2019-03-18T06:45:39.937Z,101212.91
2019-03-18T06:46:45.041Z,101209.73
2019-03-18T06:47:51.019Z,101207.85
2019-03-18T06:48:56.392Z,101212.55
2019-03-18T06:50:01.909Z,101215.97
2019-03-18T06:51:07.018Z,101216.91
2019-03-18T06:52:12.106Z,101213.88
2019-03-18T06:53:17.673Z,101217.76
2019-03-18T06:54:23.296Z,101218.15
2019-03-18T06:55:28.411Z,101222.10
2019-03-18T06:56:34.283Z,101223.24
2019-03-18T06:57:39.767Z,101231.84
2019-03-18T06:58:45.724Z,101230.88
2019-03-18T06:59:51.389Z,101230.41
2019-03-18T07:00:56.536Z,101229.55
2019-03-18T07:02:01.996Z,101223.07
2019-03-18T07:03:07.387Z,101231.91
2019-03-18T07:04:12.536Z,101231.16
2019-03-18T07:05:17.823Z,101232.54
2019-03-18T07:06:23.397Z,101232.64
2019-03-18T07:07:28.450Z,101234.42
2019-03-18T07:08:33.569Z,101235.28
2019-03-18T07:09:38.931Z,101233.95
2019-03-18T07:10:44.182Z,101238.27
2019-03-18T07:11:49.549Z,101236.20
2019-03-18T07:12:54.826Z,101244.01
2019-03-18T07:14:00.295Z,101252.30
2019-03-18T07:15:05.729Z,101254.55
2019-03-18T07:16:11.511Z,101251.91
2019-03-18T07:17:16.757Z,101253.73
2019-03-18T07:18:21.751Z,101266.91
2019-03-18T07:19:27.092Z,101262.45
2019-03-18T07:20:32.218Z,101264.17
2019-03-18T07:21:37.320Z,101259.65
2019-03-18T07:22:42.583Z,101259.52
2019-03-18T07:23:47.667Z,101266.85
2019-03-18T07:24:52.991Z,101256.14
2019-03-18T07:25:58.329Z,101256.06
2019-03-18T07:27:03.303Z,101262.55
2019-03-18T07:28:08.251Z,101256.71
2019-03-18T07:29:13.389Z,101261.98
2019-03-18T07:30:18.506Z,101262.38
2019-03-18T07:31:23.706Z,101261.45
2019-03-18T07:32:28.877Z,101265.12
2019-03-18T07:33:34.131Z,101268.58
2019-03-18T07:34:39.529Z,101266.05
2019-03-18T07:35:44.688Z,101269.53
2019-03-18T07:36:50.208Z,101272.53
2019-03-18T07:37:55.252Z,101277.73
2019-03-18T07:39:00.557Z,101279.91
2019-03-18T07:40:06.304Z,101283.30
2019-03-18T07:41:11.654Z,101278.02
2019-03-18T07:42:17.262Z,101282.38
2019-03-18T07:43:22.749Z,101284.25
2019-03-18T07:44:27.792Z,101286.79
2019-03-18T07:45:33.569Z,101292.06
2019-03-18T07:46:38.593Z,101290.67
2019-03-18T07:47:43.566Z,101287.08
2019-03-18T07:48:49.562Z,101290.11
2019-03-18T07:49:54.566Z,101295.38
2019-03-18T07:50:59.940Z,101295.31
2019-03-18T07:52:05.450Z,101300.48
2019-03-18T07:53:10.693Z,101297.84
2019-03-18T07:54:15.818Z,101299.55
2019-03-18T07:55:22.488Z,101297.28
2019-03-18T07:56:27.993Z,101296.74
2019-03-18T07:57:33.462Z,101304.48
2019-03-18T07:58:38.474Z,101298.64
2019-03-18T07:59:43.638Z,101307.41
2019-03-18T08:00:48.829Z,101306.88
2019-03-18T08:01:54.179Z,101306.30
2019-03-18T08:02:59.220Z,101308.84
2019-03-18T08:04:04.412Z,101314.80
2019-03-18T08:05:09.925Z,101316.90
2019-03-18T08:06:14.951Z,101315.87
2019-03-18T08:07:19.968Z,101319.65
2019-03-18T08:08:25.116Z,101329.63
2019-03-18T08:09:30.437Z,101323.82
2019-03-18T08:10:35.468Z,101321.08
2019-03-18T08:11:40.980Z,101319.23
2019-03-18T08:12:45.956Z,101320.44
2019-03-18T08:13:51.461Z,101322.90
2019-03-18T08:14:57.168Z,101325.36
2019-03-18T08:16:02.242Z,101326.14
2019-03-18T08:17:08.033Z,101326.43
2019-03-18T08:18:13.107Z,101326.36
2019-03-18T08:19:18.186Z,101332.78
2019-03-18T08:20:23.193Z,101336.91
2019-03-18T08:21:28.209Z,101337.59
2019-03-18T08:22:33.417Z,101345.26
2019-03-18T08:23:38.720Z,101341.05
2019-03-18T08:24:44.368Z,101341.05
2019-03-18T08:25:49.323Z,101341.07
2019-03-18T08:26:54.393Z,101349.91
2019-03-18T08:27:59.617Z,101348.61
2019-03-18T08:29:04.646Z,101348.06
2019-03-18T08:30:10.847Z,101348.08
2019-03-18T08:31:15.993Z,101350.35
2019-03-18T08:32:21.252Z,101356.13
2019-03-18T08:33:26.213Z,101356.02
2019-03-18T08:34:31.204Z,101352.85
2019-03-18T08:35:36.204Z,101357.19
2019-03-18T08:36:41.697Z,101365.13
2019-03-18T08:37:47.142Z,101364.74
2019-03-18T08:38:52.243Z,101362.76
2019-03-18T08:39:57.590Z,101366.15
2019-03-18T08:41:02.578Z,101364.36
2019-03-18T08:42:07.659Z,101364.00
2019-03-18T08:43:12.933Z,101364.55
2019-03-18T08:44:18.053Z,101370.88
2019-03-18T08:45:23.069Z,101366.91
2019-03-18T08:46:28.048Z,101374.64
2019-03-18T08:47:33.366Z,101375.41
2019-03-18T08:48:38.423Z,101378.31
2019-03-18T08:49:43.898Z,101380.02
2019-03-18T08:50:49.176Z,101379.34
2019-03-18T08:51:54.721Z,101383.96
2019-03-18T08:53:00.529Z,101381.89
2019-03-18T08:54:05.606Z,101385.08
2019-03-18T08:55:11.505Z,101388.30
2019-03-18T08:56:17.095Z,101384.91
2019-03-18T08:57:22.695Z,101389.22
2019-03-18T08:58:28.140Z,101391.86
2019-03-18T08:59:34.361Z,101386.51
2019-03-18T09:00:39.701Z,101387.36
2019-03-18T09:01:44.662Z,101388.50
2019-03-18T09:02:49.952Z,101388.31
2019-03-18T09:03:54.973Z,101392.09
2019-03-18T09:05:00.025Z,101383.59
2019-03-18T09:06:05.239Z,101386.36
2019-03-18T09:07:10.470Z,101393.33
2019-03-18T09:08:15.427Z,101398.17
2019-03-18T09:09:22.604Z,101391.56
2019-03-18T09:10:27.524Z,101391.66
2019-03-18T09:11:33.897Z,101388.81
2019-03-18T09:12:38.957Z,101394.03
2019-03-18T09:13:44.004Z,101402.70
2019-03-18T09:14:49.466Z,101396.02
2019-03-18T09:15:54.526Z,101398.08
2019-03-18T09:16:59.499Z,101400.92
2019-03-18T09:18:04.588Z,101401.00
2019-03-18T09:19:10.301Z,101398.55
2019-03-18T09:20:16.459Z,101404.59
2019-03-18T09:21:21.358Z,101402.80
2019-03-18T09:22:26.995Z,101406.84
2019-03-18T09:23:32.524Z,101402.60
2019-03-18T09:24:39.397Z,101404.20
2019-03-18T09:25:44.408Z,101404.59
2019-03-18T09:27:01.483Z,101409.30
2019-03-18T09:27:56.474Z,101417.23
2019-03-18T09:29:01.576Z,101411.94
2019-03-18T09:30:07.877Z,101415.17
2019-03-18T09:31:15.210Z,101417.05
2019-03-18T09:32:20.342Z,101418.28
2019-03-18T09:33:25.376Z,101419.87
2019-03-18T09:34:30.407Z,101419.80
2019-03-18T09:35:35.479Z,101421.20
2019-03-18T09:36:40.587Z,101420.81
2019-03-18T09:37:45.620Z,101434.81
2019-03-18T09:38:51.240Z,101423.64
2019-03-18T09:39:56.270Z,101420.80
2019-03-18T09:41:01.405Z,101417.95
2019-03-18T09:42:06.352Z,101416.36
2019-03-18T09:43:20.163Z,101425.69
2019-03-18T09:44:25.172Z,101428.41
2019-03-18T09:45:30.168Z,101422.09
2019-03-18T09:46:35.273Z,101428.53
2019-03-18T09:47:40.671Z,101430.52
2019-03-18T09:48:46.007Z,101430.52
2019-03-18T09:49:51.166Z,101426.83
2019-03-18T09:50:56.158Z,101435.55
2019-03-18T09:52:01.231Z,101430.18
2019-03-18T09:53:06.581Z,101436.69
2019-03-18T09:54:12.258Z,101438.32
2019-03-18T09:55:17.619Z,101432.45
2019-03-18T09:56:23.477Z,101436.42
2019-03-18T09:57:28.606Z,101437.66
2019-03-18T09:58:33.931Z,101437.66
2019-03-18T09:59:39.408Z,101446.88
2019-03-18T10:00:44.518Z,101440.64
2019-03-18T10:01:49.615Z,101440.64
2019-03-18T10:02:54.786Z,101439.31
2019-03-18T10:04:00.121Z,101441.44
2019-03-18T10:05:05.856Z,101440.09
2019-03-18T10:06:11.529Z,101440.09
2019-03-18T10:07:16.664Z,101445.06
2019-03-18T10:08:21.717Z,101437.73
2019-03-18T10:09:26.735Z,101445.92
2019-03-18T10:10:31.728Z,101449.28
2019-03-18T10:11:37.278Z,101438.47
2019-03-18T10:12:42.717Z,101446.72
2019-03-18T10:13:48.836Z,101448.09
2019-03-18T10:14:53.856Z,101445.03
2019-03-18T10:15:59.112Z,101450.30
2019-03-18T10:17:09.713Z,101450.25
2019-03-18T10:18:11.045Z,101449.10
2019-03-18T10:19:15.988Z,101452.75
2019-03-18T10:20:21.041Z,101450.86
2019-03-18T10:21:26.249Z,101444.14
2019-03-18T10:22:31.382Z,101444.14
2019-03-18T10:23:36.840Z,101457.11
2019-03-18T10:24:42.168Z,101452.06
2019-03-18T10:25:47.169Z,101456.42
2019-03-18T10:26:52.437Z,101457.75
2019-03-18T10:27:57.662Z,101460.41
2019-03-18T10:29:02.732Z,101465.02
2019-03-18T10:30:07.883Z,101465.16
2019-03-18T10:31:12.927Z,101466.87
2019-03-18T10:32:17.946Z,101463.74
2019-03-18T10:33:22.940Z,101475.94
2019-03-18T10:34:27.988Z,101474.05
2019-03-18T10:35:33.363Z,101465.97
2019-03-18T10:36:39.020Z,101469.36
2019-03-18T10:37:44.063Z,101482.79
2019-03-18T10:38:49.036Z,101472.65
2019-03-18T10:39:53.955Z,101475.42
2019-03-18T10:40:59.820Z,101475.98
2019-03-18T10:42:05.211Z,101481.11
2019-03-18T10:43:10.306Z,101479.92
2019-03-18T10:44:15.300Z,101480.21
2019-03-18T10:45:20.369Z,101471.53
2019-03-18T10:46:26.463Z,101480.89
2019-03-18T10:47:31.624Z,101482.57
2019-03-18T10:48:37.098Z,101481.84
2019-03-18T10:49:46.288Z,101479.88
2019-03-18T10:50:48.802Z,101483.22
2019-03-18T10:51:54.170Z,101482.23
2019-03-18T10:52:59.495Z,101486.77
2019-03-18T10:54:04.625Z,101482.44
2019-03-18T10:55:09.875Z,101481.59
2019-03-18T10:56:15.273Z,101479.92
2019-03-18T10:57:20.292Z,101480.47
2019-03-18T10:58:25.341Z,101481.58
2019-03-18T10:59:30.305Z,101485.52
2019-03-18T11:00:35.551Z,101482.81
2019-03-18T11:01:40.694Z,101480.19
2019-03-18T11:02:46.090Z,101482.50
2019-03-18T11:03:51.865Z,101476.91
2019-03-18T11:04:56.975Z,101484.09
2019-03-18T11:06:02.037Z,101478.91
2019-03-18T11:07:07.190Z,101486.56
2019-03-18T11:08:12.314Z,101486.34
2019-03-18T11:09:17.631Z,101486.34
2019-03-18T11:10:23.059Z,101486.72
2019-03-18T11:11:28.362Z,101486.12
2019-03-18T11:12:33.772Z,101481.06
2019-03-18T11:13:38.799Z,101490.05
2019-03-18T11:14:43.836Z,101500.55
2019-03-18T11:15:48.834Z,101494.41
2019-03-18T11:16:54.258Z,101497.77
2019-03-18T11:17:59.536Z,101501.20
2019-03-18T11:19:05.302Z,101502.03
2019-03-18T11:20:11.266Z,101496.77
2019-03-18T11:21:16.774Z,101501.19
2019-03-18T11:22:21.782Z,101507.83
2019-03-18T11:23:26.754Z,101510.96
2019-03-18T11:24:31.943Z,101512.38
2019-03-18T11:25:36.976Z,101507.73
2019-03-18T11:26:42.722Z,101515.18
2019-03-18T11:27:48.640Z,101515.14
2019-03-18T11:28:53.832Z,101513.86
2019-03-18T11:29:59.113Z,101512.11
2019-03-18T11:31:04.265Z,101499.61
2019-03-18T11:32:09.534Z,101512.36
2019-03-18T11:33:14.833Z,101504.23
2019-03-18T11:34:20.155Z,101510.70
2019-03-18T11:35:25.136Z,101515.66
2019-03-18T11:36:31.686Z,101505.25
2019-03-18T11:37:36.781Z,101508.47
2019-03-18T11:38:41.885Z,101511.37
2019-03-18T11:39:47.135Z,101511.20
2019-03-18T11:40:52.245Z,101521.09
2019-03-18T11:41:57.244Z,101512.58
2019-03-18T11:43:02.863Z,101504.23
2019-03-18T11:44:08.329Z,101506.16
2019-03-18T11:45:13.763Z,101491.91
2019-03-18T11:46:18.888Z,101491.91
2019-03-18T11:47:24.449Z,101515.86
2019-03-18T11:48:30.096Z,101511.59
2019-03-18T11:49:39.943Z,101511.12
2019-03-18T11:50:41.978Z,101511.71
2019-03-18T11:51:47.777Z,101507.56
2019-03-18T11:52:52.841Z,101507.03
2019-03-18T11:53:57.879Z,101511.10
2019-03-18T11:55:03.110Z,101510.25
2019-03-18T11:56:08.139Z,101509.77
2019-03-18T11:57:13.284Z,101509.77
2019-03-18T11:58:18.435Z,101513.66
2019-03-18T11:59:23.691Z,101515.64
2019-03-18T12:00:28.804Z,101512.48
2019-03-18T12:01:33.923Z,101505.29
2019-03-18T12:02:38.945Z,101511.92
2019-03-18T12:03:43.876Z,101512.18
2019-03-18T12:04:48.934Z,101509.79
2019-03-18T12:05:53.912Z,101503.92
2019-03-18T12:06:59.264Z,101509.11
2019-03-18T12:08:04.395Z,101508.42
2019-03-18T12:09:10.192Z,101506.50
2019-03-18T12:10:16.780Z,101501.02
2019-03-18T12:11:21.742Z,101506.84
2019-03-18T12:12:27.212Z,101515.49
2019-03-18T12:13:32.742Z,101513.91
2019-03-18T12:14:38.253Z,101517.23
2019-03-18T12:15:43.361Z,101510.48
2019-03-18T12:16:48.776Z,101512.70
2019-03-18T12:17:54.238Z,101512.96
2019-03-18T12:18:59.550Z,101520.36
2019-03-18T12:20:05.584Z,101518.18
2019-03-18T12:21:10.855Z,101517.89
2019-03-18T12:22:15.891Z,101523.17
2019-03-18T12:23:21.075Z,101535.08
2019-03-18T12:24:26.110Z,101543.44
2019-03-18T12:25:33.678Z,101547.00